AirNav   Pilot Hours Calculator
 
 767 users online  

3XS8 Giffin Ranch Airport
Balmorhea, Texas, USA

GOING TO BALMORHEA?


FAA INFORMATION EFFECTIVE 10 OCTOBER 2019

Location

FAA Identifier: 3XS8
Lat/Long: 31-06-00.7300N 103-57-41.0100W
31-06.012167N 103-57.683500W
31.1002028,-103.9613917
(estimated)
Elevation: 3651 ft. / 1113 m (estimated)
From city: 15 miles NW of BALMORHEA, TX
Time zone: UTC -5 (UTC -6 during Standard Time)
Zip code: 79718

Airport Operations

Airport use: Private use. Permission required prior to landing
Activation date: 05/2016
Control tower: no
ARTCC: ALBUQUERQUE CENTER
FSS: FORT WORTH FLIGHT SERVICE STATION
Attendance: 
Wind indicator: yes
Segmented circle: no

Nearby radio navigation aids

VOR radial/distance  VOR name  Freq  Var
PEQr211/29.7PECOS VOR/DME111.8011E

Airport Services

Runway Information

Runway 3/21

Dimensions: 3549 x 75 ft. / 1082 x 23 m
Surface: dirt, in good condition
Runway edge lights: non-standard
RUNWAY 3  RUNWAY 21
Traffic pattern: leftleft
Markings: NSTD, in good conditionNSTD, in good condition

Airport Ownership and Management from official FAA records

Ownership: Privately-owned
Owner: JAMES DAVIS
211 N. COLORADO
MIDLAND, TX 79701
Phone 432-682-6311
Manager: LORI WNTER
PO BOX 50547
MIDLAND, TX 79710
Phone 432-685-7000

Additional Remarks

FOR CD CTC ALBUQUERQUE ARTCC AT 505-856-4861.

Instrument Procedures

There are no published instrument procedures at 3XS8.

Some nearby airports with instrument procedures:

KPEQ - Pecos Municipal Airport (29 nm NE)
KVHN - Culberson County Airport (42 nm W)
KMRF - Marfa Municipal Airport (44 nm S)
E38 - Alpine-Casparis Municipal Airport (45 nm S)
KFST - Fort Stockton-Pecos County Airport (55 nm E)
 
Loc | Ops | Rwys | IFR | FBO | Links
Com | Nav | Svcs | Stats | Notes
Aerial photo
No photo
 
Airport distance calculator
Flying to Giffin Ranch Airport? Find the distance to fly.

From to 3XS8

Sunrise and sunset
Times for 13-Oct-2019
 Local
(UTC-5)
 Zulu
(UTC)
Morning civil twilight07:3412:34
Sunrise07:5812:58
Sunset19:2600:26
Evening civil twilight19:5000:50

Current date and time
Zulu (UTC)  14-Oct-2019 02:38:13
Local (UTC-5)  13-Oct-2019 21:38:13
 
METAR
KPEQ 
29nm NE 
140210Z AUTO 20007KT 10SM CLR 24/07 A2998 RMK AO2 T02410066
KMRF 
44nm S 
140156Z AUTO 14005KT 10SM CLR 13/11 A3016 RMK AO2 SLP184 T01330111
KE38 
45nm S 
140215Z AUTO 18007KT 10SM CLR 16/11 A3017 RMK AO2 T01630112
TAF
KPEQ 
29nm NE 
131720Z 1318/1418 23004KT P6SM SCT200
NOTAMs
Click for the latest NOTAMs
NOTAMs are issued by the DoD/FAA and will open in a separate window not controlled by AirNav.

 

 
 

Would you like to see your business listed on this page?

 If your business provides an interesting product or service to pilots, flight crews, aircraft, or users of the Giffin Ranch Airport, you should consider listing it here.  To start the listing process, click on the button below
 
Add a business
 

Other Pages about Giffin Ranch Airport

Update a link
 
Copyright © AirNav, LLC. All rights reserved. Privacy Policy  Contact